sensor_id;sensor_type;location;lat;lon;timestamp;P1;durP1;ratioP1;P2;durP2;ratioP2
2522;SDS011;1272;53.332;9.860;2023-04-15T00:00:06;12.80;;;11.10;;
2522;SDS011;1272;53.332;9.860;2023-04-15T00:02:33;11.60;;;10.27;;
2522;SDS011;1272;53.332;9.860;2023-04-15T00:05:00;10.70;;;9.47;;
2522;SDS011;1272;53.332;9.860;2023-04-15T00:07:25;10.87;;;9.77;;
2522;SDS011;1272;53.332;9.860;2023-04-15T00:09:51;11.27;;;10.10;;
2522;SDS011;1272;53.332;9.860;2023-04-15T00:12:19;9.60;;;8.70;;
2522;SDS011;1272;53.332;9.860;2023-04-15T00:14:45;9.83;;;8.60;;
2522;SDS011;1272;53.332;9.860;2023-04-15T00:17:11;9.60;;;8.60;;
2522;SDS011;1272;53.332;9.860;2023-04-15T00:19:37;10.30;;;9.20;;
2522;SDS011;1272;53.332;9.860;2023-04-15T00:22:03;9.93;;;7.67;;
2522;SDS011;1272;53.332;9.860;2023-04-15T00:24:28;9.10;;;7.60;;
2522;SDS011;1272;53.332;9.860;2023-04-15T00:26:55;9.40;;;8.53;;
2522;SDS011;1272;53.332;9.860;2023-04-15T00:29:22;8.57;;;7.70;;
2522;SDS011;1272;53.332;9.860;2023-04-15T00:31:48;8.27;;;7.47;;
2522;SDS011;1272;53.332;9.860;2023-04-15T00:34:13;8.70;;;7.37;;
2522;SDS011;1272;53.332;9.860;2023-04-15T00:36:39;8.40;;;7.10;;
2522;SDS011;1272;53.332;9.860;2023-04-15T00:39:05;7.13;;;6.43;;
2522;SDS011;1272;53.332;9.860;2023-04-15T00:41:31;9.30;;;7.63;;
2522;SDS011;1272;53.332;9.860;2023-04-15T00:43:58;7.87;;;7.07;;
2522;SDS011;1272;53.332;9.860;2023-04-15T00:46:25;15.10;;;8.30;;
2522;SDS011;1272;53.332;9.860;2023-04-15T00:48:53;7.83;;;7.10;;
2522;SDS011;1272;53.332;9.860;2023-04-15T00:51:19;8.37;;;6.50;;
2522;SDS011;1272;53.332;9.860;2023-04-15T00:53:44;8.97;;;7.60;;
2522;SDS011;1272;53.332;9.860;2023-04-15T00:56:10;9.07;;;8.17;;
2522;SDS011;1272;53.332;9.860;2023-04-15T00:58:36;8.63;;;7.77;;
2522;SDS011;1272;53.332;9.860;2023-04-15T01:01:02;10.33;;;8.37;;
2522;SDS011;1272;53.332;9.860;2023-04-15T01:03:28;8.20;;;7.37;;
2522;SDS011;1272;53.332;9.860;2023-04-15T01:05:55;8.77;;;6.90;;
2522;SDS011;1272;53.332;9.860;2023-04-15T01:08:27;8.27;;;7.47;;
2522;SDS011;1272;53.332;9.860;2023-04-15T01:10:54;8.60;;;7.70;;
2522;SDS011;1272;53.332;9.860;2023-04-15T01:13:22;8.07;;;7.27;;
2522;SDS011;1272;53.332;9.860;2023-04-15T01:15:49;8.40;;;7.60;;
2522;SDS011;1272;53.332;9.860;2023-04-15T01:18:15;7.60;;;6.80;;
2522;SDS011;1272;53.332;9.860;2023-04-15T01:20:41;8.93;;;8.13;;
2522;SDS011;1272;53.332;9.860;2023-04-15T01:23:07;8.37;;;7.47;;
2522;SDS011;1272;53.332;9.860;2023-04-15T01:25:34;7.70;;;7.00;;
2522;SDS011;1272;53.332;9.860;2023-04-15T01:28:01;8.37;;;7.30;;
2522;SDS011;1272;53.332;9.860;2023-04-15T01:30:27;7.50;;;6.70;;
2522;SDS011;1272;53.332;9.860;2023-04-15T01:32:53;7.50;;;6.67;;
2522;SDS011;1272;53.332;9.860;2023-04-15T01:35:18;7.40;;;6.67;;
2522;SDS011;1272;53.332;9.860;2023-04-15T01:37:45;7.03;;;6.37;;
2522;SDS011;1272;53.332;9.860;2023-04-15T01:40:11;7.57;;;6.83;;
2522;SDS011;1272;53.332;9.860;2023-04-15T01:42:37;6.60;;;5.80;;
2522;SDS011;1272;53.332;9.860;2023-04-15T01:45:03;7.00;;;6.30;;
2522;SDS011;1272;53.332;9.860;2023-04-15T01:47:30;7.50;;;6.70;;
2522;SDS011;1272;53.332;9.860;2023-04-15T01:49:56;7.00;;;5.57;;
2522;SDS011;1272;53.332;9.860;2023-04-15T01:52:21;6.87;;;6.10;;
2522;SDS011;1272;53.332;9.860;2023-04-15T01:54:47;6.07;;;5.57;;
2522;SDS011;1272;53.332;9.860;2023-04-15T01:57:13;6.80;;;6.10;;
2522;SDS011;1272;53.332;9.860;2023-04-15T01:59:38;6.47;;;5.87;;
2522;SDS011;1272;53.332;9.860;2023-04-15T02:02:05;6.17;;;5.57;;
2522;SDS011;1272;53.332;9.860;2023-04-15T02:04:30;5.97;;;5.47;;
2522;SDS011;1272;53.332;9.860;2023-04-15T02:06:56;6.47;;;5.50;;
2522;SDS011;1272;53.332;9.860;2023-04-15T02:09:22;6.60;;;5.83;;
2522;SDS011;1272;53.332;9.860;2023-04-15T02:11:48;7.83;;;6.13;;
2522;SDS011;1272;53.332;9.860;2023-04-15T02:14:13;7.30;;;6.60;;
2522;SDS011;1272;53.332;9.860;2023-04-15T02:16:39;8.10;;;6.80;;
2522;SDS011;1272;53.332;9.860;2023-04-15T02:19:05;7.67;;;6.67;;
2522;SDS011;1272;53.332;9.860;2023-04-15T02:21:31;6.13;;;5.53;;
2522;SDS011;1272;53.332;9.860;2023-04-15T02:23:59;7.03;;;6.43;;
2522;SDS011;1272;53.332;9.860;2023-04-15T02:26:26;5.93;;;5.40;;
2522;SDS011;1272;53.332;9.860;2023-04-15T02:28:52;7.93;;;7.13;;
2522;SDS011;1272;53.332;9.860;2023-04-15T02:31:17;7.77;;;7.00;;
2522;SDS011;1272;53.332;9.860;2023-04-15T02:33:43;7.23;;;6.47;;
2522;SDS011;1272;53.332;9.860;2023-04-15T02:36:09;7.50;;;6.80;;
2522;SDS011;1272;53.332;9.860;2023-04-15T02:38:36;7.73;;;6.67;;
2522;SDS011;1272;53.332;9.860;2023-04-15T02:41:04;8.00;;;7.20;;
2522;SDS011;1272;53.332;9.860;2023-04-15T02:43:30;6.70;;;6.17;;
2522;SDS011;1272;53.332;9.860;2023-04-15T02:45:56;7.30;;;6.50;;
2522;SDS011;1272;53.332;9.860;2023-04-15T02:48:22;7.83;;;6.70;;
2522;SDS011;1272;53.332;9.860;2023-04-15T02:50:48;8.20;;;7.43;;
2522;SDS011;1272;53.332;9.860;2023-04-15T02:53:13;8.43;;;7.63;;
2522;SDS011;1272;53.332;9.860;2023-04-15T02:55:39;8.13;;;7.30;;
2522;SDS011;1272;53.332;9.860;2023-04-15T02:58:06;9.57;;;7.90;;
2522;SDS011;1272;53.332;9.860;2023-04-15T03:00:32;9.50;;;7.40;;
2522;SDS011;1272;53.332;9.860;2023-04-15T03:03:00;8.97;;;6.93;;
2522;SDS011;1272;53.332;9.860;2023-04-15T03:05:28;9.03;;;7.73;;
2522;SDS011;1272;53.332;9.860;2023-04-15T03:07:53;8.57;;;7.07;;
2522;SDS011;1272;53.332;9.860;2023-04-15T03:10:19;9.30;;;7.80;;
2522;SDS011;1272;53.332;9.860;2023-04-15T03:12:46;10.47;;;7.70;;
2522;SDS011;1272;53.332;9.860;2023-04-15T03:15:11;9.03;;;8.10;;
2522;SDS011;1272;53.332;9.860;2023-04-15T03:17:37;8.43;;;7.13;;
2522;SDS011;1272;53.332;9.860;2023-04-15T03:20:05;8.40;;;7.50;;
2522;SDS011;1272;53.332;9.860;2023-04-15T03:22:31;8.33;;;7.53;;
2522;SDS011;1272;53.332;9.860;2023-04-15T03:24:57;8.00;;;7.20;;
2522;SDS011;1272;53.332;9.860;2023-04-15T03:27:23;10.07;;;8.20;;
2522;SDS011;1272;53.332;9.860;2023-04-15T03:29:49;9.03;;;7.50;;
2522;SDS011;1272;53.332;9.860;2023-04-15T03:32:16;10.70;;;8.60;;
2522;SDS011;1272;53.332;9.860;2023-04-15T03:34:42;7.83;;;6.97;;
2522;SDS011;1272;53.332;9.860;2023-04-15T03:37:10;9.87;;;7.77;;
2522;SDS011;1272;53.332;9.860;2023-04-15T03:39:36;8.77;;;7.87;;
2522;SDS011;1272;53.332;9.860;2023-04-15T03:42:01;11.60;;;8.70;;
2522;SDS011;1272;53.332;9.860;2023-04-15T03:44:27;11.97;;;9.03;;
2522;SDS011;1272;53.332;9.860;2023-04-15T03:46:53;9.97;;;8.70;;
2522;SDS011;1272;53.332;9.860;2023-04-15T03:49:19;10.40;;;8.77;;
2522;SDS011;1272;53.332;9.860;2023-04-15T03:51:47;9.50;;;7.73;;
2522;SDS011;1272;53.332;9.860;2023-04-15T03:54:12;10.93;;;8.57;;
2522;SDS011;1272;53.332;9.860;2023-04-15T03:56:39;13.97;;;8.73;;
2522;SDS011;1272;53.332;9.860;2023-04-15T03:59:05;12.33;;;9.67;;
2522;SDS011;1272;53.332;9.860;2023-04-15T04:01:31;12.47;;;9.23;;
2522;SDS011;1272;53.332;9.860;2023-04-15T04:03:56;9.77;;;8.53;;
2522;SDS011;1272;53.332;9.860;2023-04-15T04:06:22;11.20;;;8.90;;
2522;SDS011;1272;53.332;9.860;2023-04-15T04:08:48;10.27;;;9.00;;
2522;SDS011;1272;53.332;9.860;2023-04-15T04:11:13;10.30;;;8.47;;
2522;SDS011;1272;53.332;9.860;2023-04-15T04:13:40;9.77;;;8.70;;
2522;SDS011;1272;53.332;9.860;2023-04-15T04:16:05;10.27;;;9.27;;
2522;SDS011;1272;53.332;9.860;2023-04-15T04:18:31;15.10;;;9.20;;
2522;SDS011;1272;53.332;9.860;2023-04-15T04:20:57;10.43;;;9.10;;
2522;SDS011;1272;53.332;9.860;2023-04-15T04:23:23;10.63;;;9.50;;
2522;SDS011;1272;53.332;9.860;2023-04-15T04:25:49;10.90;;;8.53;;
2522;SDS011;1272;53.332;9.860;2023-04-15T04:28:16;9.80;;;8.17;;
2522;SDS011;1272;53.332;9.860;2023-04-15T04:30:42;10.47;;;8.37;;
2522;SDS011;1272;53.332;9.860;2023-04-15T04:33:08;9.50;;;8.13;;
2522;SDS011;1272;53.332;9.860;2023-04-15T04:35:33;9.50;;;8.50;;
2522;SDS011;1272;53.332;9.860;2023-04-15T04:38:01;10.50;;;8.67;;
2522;SDS011;1272;53.332;9.860;2023-04-15T04:40:28;8.97;;;8.07;;
2522;SDS011;1272;53.332;9.860;2023-04-15T04:42:53;8.47;;;7.57;;
2522;SDS011;1272;53.332;9.860;2023-04-15T04:45:19;9.97;;;8.07;;
2522;SDS011;1272;53.332;9.860;2023-04-15T04:47:45;8.40;;;7.43;;
2522;SDS011;1272;53.332;9.860;2023-04-15T04:50:12;7.87;;;7.07;;
2522;SDS011;1272;53.332;9.860;2023-04-15T04:52:38;8.53;;;7.37;;
2522;SDS011;1272;53.332;9.860;2023-04-15T04:55:04;9.53;;;7.57;;
2522;SDS011;1272;53.332;9.860;2023-04-15T04:57:30;8.87;;;7.33;;
2522;SDS011;1272;53.332;9.860;2023-04-15T04:59:56;7.77;;;6.97;;
2522;SDS011;1272;53.332;9.860;2023-04-15T05:02:21;7.50;;;6.60;;
2522;SDS011;1272;53.332;9.860;2023-04-15T05:04:47;6.63;;;5.90;;
2522;SDS011;1272;53.332;9.860;2023-04-15T05:07:14;9.10;;;6.93;;
2522;SDS011;1272;53.332;9.860;2023-04-15T05:09:40;8.83;;;6.90;;
2522;SDS011;1272;53.332;9.860;2023-04-15T05:12:06;7.70;;;6.63;;
2522;SDS011;1272;53.332;9.860;2023-04-15T05:14:33;6.90;;;6.20;;
2522;SDS011;1272;53.332;9.860;2023-04-15T05:16:58;7.53;;;6.20;;
2522;SDS011;1272;53.332;9.860;2023-04-15T05:19:24;8.90;;;7.07;;
2522;SDS011;1272;53.332;9.860;2023-04-15T05:21:50;6.23;;;5.70;;
2522;SDS011;1272;53.332;9.860;2023-04-15T05:24:16;7.47;;;6.47;;
2522;SDS011;1272;53.332;9.860;2023-04-15T05:26:42;7.13;;;6.43;;
2522;SDS011;1272;53.332;9.860;2023-04-15T05:29:07;6.43;;;5.50;;
2522;SDS011;1272;53.332;9.860;2023-04-15T05:31:33;6.37;;;5.73;;
2522;SDS011;1272;53.332;9.860;2023-04-15T05:33:59;6.60;;;6.00;;
2522;SDS011;1272;53.332;9.860;2023-04-15T05:36:25;6.73;;;6.13;;
2522;SDS011;1272;53.332;9.860;2023-04-15T05:38:51;6.87;;;6.17;;
2522;SDS011;1272;53.332;9.860;2023-04-15T05:41:17;7.50;;;6.47;;
2522;SDS011;1272;53.332;9.860;2023-04-15T05:43:43;7.73;;;7.03;;
2522;SDS011;1272;53.332;9.860;2023-04-15T05:46:08;8.80;;;7.90;;
2522;SDS011;1272;53.332;9.860;2023-04-15T05:48:34;10.33;;;7.83;;
2522;SDS011;1272;53.332;9.860;2023-04-15T05:51:00;9.60;;;7.80;;
2522;SDS011;1272;53.332;9.860;2023-04-15T05:53:25;11.50;;;9.87;;
2522;SDS011;1272;53.332;9.860;2023-04-15T05:55:51;10.43;;;8.30;;
2522;SDS011;1272;53.332;9.860;2023-04-15T05:58:17;10.50;;;8.83;;
2522;SDS011;1272;53.332;9.860;2023-04-15T06:00:42;10.90;;;9.20;;
2522;SDS011;1272;53.332;9.860;2023-04-15T06:03:09;12.50;;;9.40;;
2522;SDS011;1272;53.332;9.860;2023-04-15T06:05:35;10.80;;;9.47;;
2522;SDS011;1272;53.332;9.860;2023-04-15T06:08:01;12.27;;;10.13;;
2522;SDS011;1272;53.332;9.860;2023-04-15T06:10:27;13.13;;;10.13;;
2522;SDS011;1272;53.332;9.860;2023-04-15T06:12:53;14.70;;;9.53;;
2522;SDS011;1272;53.332;9.860;2023-04-15T06:15:18;12.60;;;10.17;;
2522;SDS011;1272;53.332;9.860;2023-04-15T06:17:44;16.50;;;10.97;;
2522;SDS011;1272;53.332;9.860;2023-04-15T06:20:10;15.13;;;12.00;;
2522;SDS011;1272;53.332;9.860;2023-04-15T06:22:36;17.80;;;12.97;;
2522;SDS011;1272;53.332;9.860;2023-04-15T06:25:06;14.57;;;11.47;;
2522;SDS011;1272;53.332;9.860;2023-04-15T06:27:35;18.80;;;13.10;;
2522;SDS011;1272;53.332;9.860;2023-04-15T06:30:01;23.00;;;14.33;;
2522;SDS011;1272;53.332;9.860;2023-04-15T06:32:27;22.40;;;14.80;;
2522;SDS011;1272;53.332;9.860;2023-04-15T06:34:52;20.23;;;14.37;;
2522;SDS011;1272;53.332;9.860;2023-04-15T06:37:18;25.13;;;16.50;;
2522;SDS011;1272;53.332;9.860;2023-04-15T06:39:43;25.00;;;16.27;;
2522;SDS011;1272;53.332;9.860;2023-04-15T06:42:09;21.87;;;15.47;;
2522;SDS011;1272;53.332;9.860;2023-04-15T06:44:36;29.07;;;19.30;;
2522;SDS011;1272;53.332;9.860;2023-04-15T06:47:02;27.70;;;17.20;;
2522;SDS011;1272;53.332;9.860;2023-04-15T06:49:27;29.83;;;18.40;;
2522;SDS011;1272;53.332;9.860;2023-04-15T06:51:53;23.50;;;16.33;;
2522;SDS011;1272;53.332;9.860;2023-04-15T06:54:19;28.47;;;19.17;;
2522;SDS011;1272;53.332;9.860;2023-04-15T06:56:45;31.63;;;20.87;;
2522;SDS011;1272;53.332;9.860;2023-04-15T06:59:11;32.40;;;21.37;;
2522;SDS011;1272;53.332;9.860;2023-04-15T07:01:39;32.93;;;20.40;;
2522;SDS011;1272;53.332;9.860;2023-04-15T07:04:05;34.87;;;21.60;;
2522;SDS011;1272;53.332;9.860;2023-04-15T07:06:31;45.23;;;23.57;;
2522;SDS011;1272;53.332;9.860;2023-04-15T07:08:57;38.97;;;23.67;;
2522;SDS011;1272;53.332;9.860;2023-04-15T07:11:25;40.63;;;24.17;;
2522;SDS011;1272;53.332;9.860;2023-04-15T07:13:50;45.60;;;27.53;;
2522;SDS011;1272;53.332;9.860;2023-04-15T07:16:19;46.30;;;27.03;;
2522;SDS011;1272;53.332;9.860;2023-04-15T07:18:47;47.17;;;28.33;;
2522;SDS011;1272;53.332;9.860;2023-04-15T07:21:12;48.33;;;28.80;;
2522;SDS011;1272;53.332;9.860;2023-04-15T07:23:38;51.97;;;30.57;;
2522;SDS011;1272;53.332;9.860;2023-04-15T07:26:04;50.67;;;28.40;;
2522;SDS011;1272;53.332;9.860;2023-04-15T07:28:30;53.20;;;29.40;;
2522;SDS011;1272;53.332;9.860;2023-04-15T07:30:55;48.20;;;29.90;;
2522;SDS011;1272;53.332;9.860;2023-04-15T07:33:21;55.23;;;31.77;;
2522;SDS011;1272;53.332;9.860;2023-04-15T07:35:47;54.30;;;32.93;;
2522;SDS011;1272;53.332;9.860;2023-04-15T07:38:14;54.87;;;31.40;;
2522;SDS011;1272;53.332;9.860;2023-04-15T07:40:39;58.13;;;29.87;;
2522;SDS011;1272;53.332;9.860;2023-04-15T07:43:06;49.77;;;28.83;;
2522;SDS011;1272;53.332;9.860;2023-04-15T07:45:32;50.70;;;32.57;;
2522;SDS011;1272;53.332;9.860;2023-04-15T07:48:02;54.67;;;31.13;;
2522;SDS011;1272;53.332;9.860;2023-04-15T07:50:28;55.33;;;31.73;;
2522;SDS011;1272;53.332;9.860;2023-04-15T07:52:53;52.47;;;32.20;;
2522;SDS011;1272;53.332;9.860;2023-04-15T07:55:19;54.07;;;33.90;;
2522;SDS011;1272;53.332;9.860;2023-04-15T07:57:47;62.20;;;33.57;;
2522;SDS011;1272;53.332;9.860;2023-04-15T08:00:13;57.67;;;34.60;;
2522;SDS011;1272;53.332;9.860;2023-04-15T08:02:40;55.07;;;32.30;;
2522;SDS011;1272;53.332;9.860;2023-04-15T08:05:07;61.30;;;34.53;;
2522;SDS011;1272;53.332;9.860;2023-04-15T08:07:33;65.97;;;34.40;;
2522;SDS011;1272;53.332;9.860;2023-04-15T08:10:03;60.67;;;36.03;;
2522;SDS011;1272;53.332;9.860;2023-04-15T08:12:29;60.73;;;33.80;;
2522;SDS011;1272;53.332;9.860;2023-04-15T08:14:55;69.83;;;38.50;;
2522;SDS011;1272;53.332;9.860;2023-04-15T08:17:21;62.63;;;35.53;;
2522;SDS011;1272;53.332;9.860;2023-04-15T08:19:47;60.03;;;37.10;;
2522;SDS011;1272;53.332;9.860;2023-04-15T08:22:13;60.77;;;34.73;;
2522;SDS011;1272;53.332;9.860;2023-04-15T08:24:39;66.30;;;36.30;;
2522;SDS011;1272;53.332;9.860;2023-04-15T08:27:05;61.90;;;37.40;;
2522;SDS011;1272;53.332;9.860;2023-04-15T08:29:34;62.97;;;35.40;;
2522;SDS011;1272;53.332;9.860;2023-04-15T08:32:00;58.70;;;35.60;;
2522;SDS011;1272;53.332;9.860;2023-04-15T08:34:26;61.17;;;35.77;;
2522;SDS011;1272;53.332;9.860;2023-04-15T08:36:52;57.87;;;35.03;;
2522;SDS011;1272;53.332;9.860;2023-04-15T08:39:18;63.23;;;35.37;;
2522;SDS011;1272;53.332;9.860;2023-04-15T08:41:50;60.33;;;37.80;;
2522;SDS011;1272;53.332;9.860;2023-04-15T08:44:20;58.87;;;35.40;;
2522;SDS011;1272;53.332;9.860;2023-04-15T08:46:48;58.80;;;36.20;;
2522;SDS011;1272;53.332;9.860;2023-04-15T08:49:16;69.07;;;37.37;;
2522;SDS011;1272;53.332;9.860;2023-04-15T08:51:43;64.20;;;37.20;;
2522;SDS011;1272;53.332;9.860;2023-04-15T08:54:09;58.90;;;36.13;;
2522;SDS011;1272;53.332;9.860;2023-04-15T08:56:37;62.43;;;37.00;;
2522;SDS011;1272;53.332;9.860;2023-04-15T08:59:03;59.73;;;36.17;;
2522;SDS011;1272;53.332;9.860;2023-04-15T09:01:30;59.47;;;35.33;;
2522;SDS011;1272;53.332;9.860;2023-04-15T09:03:56;58.60;;;34.53;;
2522;SDS011;1272;53.332;9.860;2023-04-15T09:06:24;57.33;;;34.77;;
2522;SDS011;1272;53.332;9.860;2023-04-15T09:08:50;66.10;;;38.00;;
2522;SDS011;1272;53.332;9.860;2023-04-15T09:11:16;66.03;;;38.53;;
2522;SDS011;1272;53.332;9.860;2023-04-15T09:13:42;59.77;;;37.30;;
2522;SDS011;1272;53.332;9.860;2023-04-15T09:16:08;61.87;;;37.10;;
2522;SDS011;1272;53.332;9.860;2023-04-15T09:18:35;63.40;;;35.50;;
2522;SDS011;1272;53.332;9.860;2023-04-15T09:21:04;65.40;;;37.57;;
2522;SDS011;1272;53.332;9.860;2023-04-15T09:23:35;65.90;;;38.93;;
2522;SDS011;1272;53.332;9.860;2023-04-15T09:26:03;71.30;;;38.33;;
2522;SDS011;1272;53.332;9.860;2023-04-15T09:28:29;66.57;;;37.77;;
2522;SDS011;1272;53.332;9.860;2023-04-15T09:30:59;62.50;;;35.83;;
2522;SDS011;1272;53.332;9.860;2023-04-15T09:33:27;58.50;;;35.10;;
2522;SDS011;1272;53.332;9.860;2023-04-15T09:36:03;60.00;;;36.30;;
2522;SDS011;1272;53.332;9.860;2023-04-15T09:38:30;58.93;;;35.83;;
2522;SDS011;1272;53.332;9.860;2023-04-15T09:40:57;65.60;;;37.60;;
2522;SDS011;1272;53.332;9.860;2023-04-15T09:43:36;73.77;;;37.33;;
2522;SDS011;1272;53.332;9.860;2023-04-15T09:46:05;76.97;;;40.80;;
2522;SDS011;1272;53.332;9.860;2023-04-15T09:48:31;77.13;;;41.07;;
2522;SDS011;1272;53.332;9.860;2023-04-15T09:50:57;64.57;;;39.83;;
2522;SDS011;1272;53.332;9.860;2023-04-15T09:53:24;75.23;;;40.57;;
2522;SDS011;1272;53.332;9.860;2023-04-15T09:58:19;70.30;;;40.73;;
2522;SDS011;1272;53.332;9.860;2023-04-15T10:00:46;68.23;;;40.83;;
2522;SDS011;1272;53.332;9.860;2023-04-15T10:03:18;75.33;;;43.10;;
2522;SDS011;1272;53.332;9.860;2023-04-15T10:05:46;81.60;;;44.43;;
2522;SDS011;1272;53.332;9.860;2023-04-15T10:08:18;70.23;;;40.50;;
2522;SDS011;1272;53.332;9.860;2023-04-15T10:10:46;66.80;;;38.40;;
2522;SDS011;1272;53.332;9.860;2023-04-15T10:13:13;68.73;;;39.33;;
2522;SDS011;1272;53.332;9.860;2023-04-15T10:15:42;64.47;;;38.53;;
2522;SDS011;1272;53.332;9.860;2023-04-15T10:18:12;61.97;;;38.93;;
2522;SDS011;1272;53.332;9.860;2023-04-15T10:20:41;66.53;;;37.47;;
2522;SDS011;1272;53.332;9.860;2023-04-15T10:23:08;64.57;;;38.00;;
2522;SDS011;1272;53.332;9.860;2023-04-15T10:25:35;58.17;;;38.47;;
2522;SDS011;1272;53.332;9.860;2023-04-15T10:28:01;59.53;;;37.37;;
2522;SDS011;1272;53.332;9.860;2023-04-15T10:30:27;60.00;;;38.20;;
2522;SDS011;1272;53.332;9.860;2023-04-15T10:32:54;60.13;;;37.67;;
2522;SDS011;1272;53.332;9.860;2023-04-15T10:35:24;53.50;;;35.67;;
2522;SDS011;1272;53.332;9.860;2023-04-15T10:37:50;63.43;;;37.03;;
2522;SDS011;1272;53.332;9.860;2023-04-15T10:43:00;56.33;;;35.40;;
2522;SDS011;1272;53.332;9.860;2023-04-15T10:45:36;62.13;;;36.87;;
2522;SDS011;1272;53.332;9.860;2023-04-15T10:48:03;58.00;;;38.90;;
2522;SDS011;1272;53.332;9.860;2023-04-15T10:50:31;49.63;;;35.33;;
2522;SDS011;1272;53.332;9.860;2023-04-15T10:52:57;51.33;;;35.80;;
2522;SDS011;1272;53.332;9.860;2023-04-15T10:55:24;52.47;;;36.27;;
2522;SDS011;1272;53.332;9.860;2023-04-15T10:57:57;56.47;;;36.80;;
2522;SDS011;1272;53.332;9.860;2023-04-15T11:00:25;52.93;;;35.30;;
2522;SDS011;1272;53.332;9.860;2023-04-15T11:05:21;49.17;;;34.87;;
2522;SDS011;1272;53.332;9.860;2023-04-15T11:08:08;45.17;;;32.90;;
2522;SDS011;1272;53.332;9.860;2023-04-15T11:13:03;48.80;;;32.87;;
2522;SDS011;1272;53.332;9.860;2023-04-15T11:15:36;46.07;;;32.17;;
2522;SDS011;1272;53.332;9.860;2023-04-15T11:20:34;44.07;;;33.23;;
2522;SDS011;1272;53.332;9.860;2023-04-15T11:23:00;42.33;;;31.80;;
2522;SDS011;1272;53.332;9.860;2023-04-15T11:25:31;46.10;;;30.60;;
2522;SDS011;1272;53.332;9.860;2023-04-15T11:27:58;45.23;;;32.80;;
2522;SDS011;1272;53.332;9.860;2023-04-15T11:30:26;47.57;;;32.40;;
2522;SDS011;1272;53.332;9.860;2023-04-15T11:32:56;40.13;;;31.13;;
2522;SDS011;1272;53.332;9.860;2023-04-15T11:35:23;39.60;;;31.37;;
2522;SDS011;1272;53.332;9.860;2023-04-15T11:37:49;43.53;;;31.40;;
2522;SDS011;1272;53.332;9.860;2023-04-15T11:40:21;48.03;;;31.93;;
2522;SDS011;1272;53.332;9.860;2023-04-15T11:43:07;41.63;;;28.70;;
2522;SDS011;1272;53.332;9.860;2023-04-15T11:45:35;41.83;;;30.50;;
2522;SDS011;1272;53.332;9.860;2023-04-15T11:48:05;35.00;;;26.87;;
2522;SDS011;1272;53.332;9.860;2023-04-15T11:50:36;34.90;;;26.40;;
2522;SDS011;1272;53.332;9.860;2023-04-15T11:53:04;39.57;;;27.30;;
2522;SDS011;1272;53.332;9.860;2023-04-15T11:55:40;32.97;;;26.77;;
2522;SDS011;1272;53.332;9.860;2023-04-15T12:00:36;32.50;;;25.50;;
2522;SDS011;1272;53.332;9.860;2023-04-15T12:03:13;34.80;;;26.70;;
2522;SDS011;1272;53.332;9.860;2023-04-15T12:13:52;23.00;;;18.77;;
2522;SDS011;1272;53.332;9.860;2023-04-15T12:16:20;25.23;;;18.03;;
2522;SDS011;1272;53.332;9.860;2023-04-15T12:18:46;28.03;;;17.30;;
2522;SDS011;1272;53.332;9.860;2023-04-15T12:21:19;20.53;;;15.47;;
2522;SDS011;1272;53.332;9.860;2023-04-15T12:23:52;20.23;;;15.87;;
2522;SDS011;1272;53.332;9.860;2023-04-15T12:26:26;35.20;;;25.60;;
2522;SDS011;1272;53.332;9.860;2023-04-15T12:28:54;18.87;;;15.03;;
2522;SDS011;1272;53.332;9.860;2023-04-15T12:31:21;19.10;;;16.73;;
2522;SDS011;1272;53.332;9.860;2023-04-15T12:33:47;17.07;;;14.90;;
2522;SDS011;1272;53.332;9.860;2023-04-15T12:36:14;18.47;;;15.37;;
2522;SDS011;1272;53.332;9.860;2023-04-15T12:38:39;15.73;;;14.00;;
2522;SDS011;1272;53.332;9.860;2023-04-15T12:41:05;15.70;;;14.10;;
2522;SDS011;1272;53.332;9.860;2023-04-15T12:43:31;16.43;;;13.17;;
2522;SDS011;1272;53.332;9.860;2023-04-15T12:45:56;41.70;;;25.50;;
2522;SDS011;1272;53.332;9.860;2023-04-15T12:48:22;17.57;;;14.73;;
2522;SDS011;1272;53.332;9.860;2023-04-15T12:50:48;17.60;;;15.27;;
2522;SDS011;1272;53.332;9.860;2023-04-15T12:53:13;23.17;;;18.80;;
2522;SDS011;1272;53.332;9.860;2023-04-15T12:55:39;18.47;;;15.03;;
2522;SDS011;1272;53.332;9.860;2023-04-15T12:58:05;16.90;;;14.77;;
2522;SDS011;1272;53.332;9.860;2023-04-15T13:00:32;17.50;;;15.50;;
2522;SDS011;1272;53.332;9.860;2023-04-15T13:02:58;18.70;;;16.10;;
2522;SDS011;1272;53.332;9.860;2023-04-15T13:05:24;14.67;;;12.90;;
2522;SDS011;1272;53.332;9.860;2023-04-15T13:07:50;18.30;;;15.30;;
2522;SDS011;1272;53.332;9.860;2023-04-15T13:10:15;16.03;;;13.60;;
2522;SDS011;1272;53.332;9.860;2023-04-15T13:12:41;31.90;;;24.67;;
2522;SDS011;1272;53.332;9.860;2023-04-15T13:15:07;15.63;;;13.03;;
2522;SDS011;1272;53.332;9.860;2023-04-15T13:17:35;15.20;;;13.53;;
2522;SDS011;1272;53.332;9.860;2023-04-15T13:20:02;14.77;;;13.07;;
2522;SDS011;1272;53.332;9.860;2023-04-15T13:22:28;16.70;;;13.63;;
2522;SDS011;1272;53.332;9.860;2023-04-15T13:24:53;14.47;;;12.93;;
2522;SDS011;1272;53.332;9.860;2023-04-15T13:27:19;15.45;;;13.85;;
2522;SDS011;1272;53.332;9.860;2023-04-15T13:29:48;14.67;;;13.17;;
2522;SDS011;1272;53.332;9.860;2023-04-15T13:32:13;14.00;;;12.60;;
2522;SDS011;1272;53.332;9.860;2023-04-15T13:34:39;13.47;;;12.00;;
2522;SDS011;1272;53.332;9.860;2023-04-15T13:37:06;12.13;;;10.93;;
2522;SDS011;1272;53.332;9.860;2023-04-15T13:39:32;12.70;;;11.50;;
2522;SDS011;1272;53.332;9.860;2023-04-15T13:41:57;12.23;;;11.03;;
2522;SDS011;1272;53.332;9.860;2023-04-15T13:44:23;12.60;;;11.33;;
2522;SDS011;1272;53.332;9.860;2023-04-15T13:46:49;13.30;;;12.00;;
2522;SDS011;1272;53.332;9.860;2023-04-15T13:49:15;12.50;;;11.23;;
2522;SDS011;1272;53.332;9.860;2023-04-15T13:51:41;13.20;;;11.80;;
2522;SDS011;1272;53.332;9.860;2023-04-15T13:54:10;14.00;;;12.17;;
2522;SDS011;1272;53.332;9.860;2023-04-15T13:56:35;11.63;;;10.43;;
2522;SDS011;1272;53.332;9.860;2023-04-15T13:59:01;12.43;;;11.00;;
2522;SDS011;1272;53.332;9.860;2023-04-15T14:01:27;12.00;;;10.70;;
2522;SDS011;1272;53.332;9.860;2023-04-15T14:03:53;13.63;;;11.60;;
2522;SDS011;1272;53.332;9.860;2023-04-15T14:06:19;16.90;;;12.80;;
2522;SDS011;1272;53.332;9.860;2023-04-15T14:08:45;14.23;;;11.60;;
2522;SDS011;1272;53.332;9.860;2023-04-15T14:11:11;13.07;;;11.67;;
2522;SDS011;1272;53.332;9.860;2023-04-15T14:13:36;14.20;;;10.77;;
2522;SDS011;1272;53.332;9.860;2023-04-15T14:16:02;13.03;;;11.23;;
2522;SDS011;1272;53.332;9.860;2023-04-15T14:18:28;13.20;;;11.80;;
2522;SDS011;1272;53.332;9.860;2023-04-15T14:20:57;11.80;;;10.60;;
2522;SDS011;1272;53.332;9.860;2023-04-15T14:23:22;13.60;;;12.17;;
2522;SDS011;1272;53.332;9.860;2023-04-15T14:25:49;16.37;;;11.97;;
2522;SDS011;1272;53.332;9.860;2023-04-15T14:28:15;13.20;;;11.90;;
2522;SDS011;1272;53.332;9.860;2023-04-15T14:30:41;13.50;;;12.07;;
2522;SDS011;1272;53.332;9.860;2023-04-15T14:33:07;14.93;;;12.40;;
2522;SDS011;1272;53.332;9.860;2023-04-15T14:35:33;11.97;;;10.77;;
2522;SDS011;1272;53.332;9.860;2023-04-15T14:37:58;14.77;;;13.07;;
2522;SDS011;1272;53.332;9.860;2023-04-15T14:40:24;13.17;;;11.87;;
2522;SDS011;1272;53.332;9.860;2023-04-15T14:42:50;12.87;;;11.50;;
2522;SDS011;1272;53.332;9.860;2023-04-15T14:45:15;11.73;;;10.60;;
2522;SDS011;1272;53.332;9.860;2023-04-15T14:47:41;14.30;;;11.17;;
2522;SDS011;1272;53.332;9.860;2023-04-15T14:50:08;11.53;;;10.47;;
2522;SDS011;1272;53.332;9.860;2023-04-15T14:52:34;12.93;;;11.43;;
2522;SDS011;1272;53.332;9.860;2023-04-15T14:55:06;12.50;;;11.30;;
2522;SDS011;1272;53.332;9.860;2023-04-15T14:57:34;12.30;;;11.20;;
2522;SDS011;1272;53.332;9.860;2023-04-15T15:00:01;11.73;;;10.30;;
2522;SDS011;1272;53.332;9.860;2023-04-15T15:02:28;13.80;;;12.40;;
2522;SDS011;1272;53.332;9.860;2023-04-15T15:07:30;15.10;;;10.90;;
2522;SDS011;1272;53.332;9.860;2023-04-15T15:09:56;12.07;;;10.43;;
2522;SDS011;1272;53.332;9.860;2023-04-15T15:12:21;10.33;;;9.33;;
2522;SDS011;1272;53.332;9.860;2023-04-15T15:14:47;10.57;;;9.57;;
2522;SDS011;1272;53.332;9.860;2023-04-15T15:17:13;11.90;;;9.27;;
2522;SDS011;1272;53.332;9.860;2023-04-15T15:19:39;11.33;;;9.07;;